Secane, Pennsylvania
Current Conditions -  °F | °C
As of 9:54 AM on Saturday 25 Oct 2014 (Local Time) from KPHL Reporting Station
Few Clouds Few Clouds  
Wind Chill: 59°   Ceiling: Unl
Heat Index: 59°   Visibility: 10mi
Dew Point: 41°   Wind: 8mph
Humidity: 51%   Direction: 270°W
Pressure: 29.91"   Gusts: NA
Location:  39.9228°N, 75.2984°W
Report Text: KPHL 251354Z 27007KT 10SM FEW250 15/05 A2991 RMK AO2 SLP129 T01500050
Loading
Personal Weather Stations






























Interactive Weather Map
Tropical Storm Tracking
New forecast layout! Learn more

10-Day Weather Forecast

Advertisements
Track Severe Weather on mobile